首页
METAR-TAF:

METAR-TAF

机场 :

曼島,

纬度: 54-05N, 经度: 004-38W, 海拔: 17米

当前天气观测

该预报发布于53分钟前的21:50 UTC
风速12节,风向,在西北北转东北之间变化
温度 11°C
湿度 76%
气压 1012 hPa
能见度10公里或以上
1500米以下无云,无积雨云

METAR: EGNS 032150Z 35012KT 310V020 CAVOK 11/07 Q1012

时间: 23:43 (22:43 UTC)

预报

该预报发布于5小时和43分钟前的17:00 UTC
预报有效从03日的 18点(UTC)到 03日的 21点(UTC)
风速12节,风向
能见度10公里或以上
散云层高于3500英尺

TAF: EGNS 031700Z 0318/0321 36012KT 9999 SCT035

超过4000个机场的气象观测和天气预报(METAR&TAF报告)。

可查询的气象台以黄色和红色小点在地图上表示。

将鼠标移到小点上方,可查看气象台名称。

然后点击查看天气观测和预报。

如需切换地图:点击带黑十字的绿色按钮放大地图;点击带横线的绿色按钮缩小地图;或者点击绿色箭头查看邻近地区的地图。


METAR-TAF: